Time;durP1;ratioP1;P1;durP2;ratioP2;P2;SDS_P1;SDS_P2;PMS_P1;PMS_P2;Temp;Humidity;BMP_temperature;BMP_pressure;BME280_temperature;BME280_humidity;BME280_pressure;Samples;Min_cycle;Max_cycle;Signal;HPM_P1;HPM_P2
2021/09/07 08:46:05;;;;;;;;;;;19.50;99.90;;;;;;6191295;22;20262;-79
2021/09/07 08:48:55;;;;;;;;;;;19.60;99.90;;;;;;6195088;23;19927;-80
2021/09/07 08:51:43;;;;;;;;;;;19.70;99.90;;;;;;6191359;23;19904;-80
2021/09/07 08:54:32;;;;;;;;;;;19.70;99.90;;;;;;6187012;23;20002;-79
2021/09/07 08:57:21;;;;;;;;;;;19.70;99.90;;;;;;6187941;23;19921;-80
2021/09/07 09:00:11;;;;;;;;;;;19.80;99.90;;;;;;6179709;23;19920;-79
2021/09/07 09:03:07;;;;;;;;;;;19.90;99.90;;;;;;6184075;23;19928;-80
2021/09/07 09:05:58;;;;;;;;;;;20.00;99.90;;;;;;6189313;23;19920;-80
2021/09/07 09:08:47;;;;;;;;;;;20.20;99.90;;;;;;6189482;23;19952;-80
2021/09/07 09:11:54;;;;;;;;;;;20.30;99.90;;;;;;6186215;23;19995;-79
2021/09/07 09:14:42;;;;;;;;;;;20.50;99.90;;;;;;6185045;23;19924;-80
2021/09/07 09:17:32;;;;;;;;;;;20.60;99.90;;;;;;6174739;23;20022;-80
2021/09/07 09:20:25;;;;;;;;;;;20.80;99.90;;;;;;6162299;23;20452;-79
2021/09/07 09:23:14;;;;;;;;;;;20.90;99.90;;;;;;6167203;23;19980;-80
2021/09/07 09:26:03;;;;;;;;;;;21.00;99.90;;;;;;6186004;23;20393;-79
2021/09/07 09:28:58;;;;;;;;;;;21.10;99.90;;;;;;6187342;23;19924;-80
2021/09/07 09:31:50;;;;;;;;;;;21.20;99.90;;;;;;6177998;23;19931;-77
2021/09/07 09:34:42;;;;;;;;;;;21.40;99.90;;;;;;6185597;23;19921;-77
2021/09/07 18:29:24;;;;;;;;;;;21.80;99.90;;;;;;6200655;23;19920;-79
2021/09/07 18:32:21;;;;;;;;;;;21.80;99.90;;;;;;6199129;23;19951;-79
2021/09/07 18:35:13;;;;;;;;;;;21.70;99.90;;;;;;6204496;23;19924;-79
2021/09/07 19:51:13;;;;;;;;;;;20.30;99.90;;;;;;6199422;23;19923;-69
2021/09/07 19:54:01;;;;;;;;;;;20.30;99.90;;;;;;6213395;23;19952;-72
2021/09/07 19:56:50;;;;;;;;;;;20.30;99.90;;;;;;6214484;23;19931;-72
2021/09/07 19:59:39;;;;;;;;;;;20.20;99.90;;;;;;6214178;23;20329;-72
2021/09/07 20:02:28;;;;;;;;;;;20.20;99.90;;;;;;6191619;23;19920;-72
2021/09/07 20:05:16;;;;;;;;;;;20.20;99.90;;;;;;6213352;23;19959;-72
2021/09/07 20:08:06;;;;;;;;;;;20.10;99.90;;;;;;6214763;23;19928;-72
2021/09/07 20:10:55;;;;;;;;;;;20.10;99.90;;;;;;6190353;23;19930;-72
2021/09/07 20:13:43;;;;;;;;;;;20.00;99.90;;;;;;6213157;23;19924;-72
2021/09/07 20:16:32;;;;;;;;;;;19.90;99.90;;;;;;6195126;23;19920;-72
2021/09/07 20:19:22;;;;;;;;;;;19.90;99.90;;;;;;6215718;23;19919;-72
2021/09/07 20:22:14;;;;;;;;;;;19.90;99.90;;;;;;6210816;23;19946;-72
2021/09/07 20:25:29;;;;;;;;;;;19.80;99.90;;;;;;6196892;23;19951;-73
2021/09/07 20:28:21;;;;;;;;;;;19.80;99.90;;;;;;6205248;23;19942;-72
2021/09/07 20:31:10;;;;;;;;;;;19.80;99.90;;;;;;6187757;23;19924;-71
2021/09/07 20:33:59;;;;;;;;;;;19.80;99.90;;;;;;6197657;23;19920;-71
2021/09/07 20:36:48;;;;;;;;;;;19.70;99.90;;;;;;6193494;23;20265;-72
2021/09/07 20:39:39;;;;;;;;;;;19.70;99.90;;;;;;6190550;23;19920;-72
2021/09/07 21:00:07;;;;;;;;;;;19.30;99.90;;;;;;6197134;23;20003;-72
2021/09/07 21:02:57;;;;;;;;;;;19.20;99.90;;;;;;6165036;23;19937;-72
2021/09/07 21:05:46;;;;;;;;;;;19.20;99.90;;;;;;6165083;23;19979;-73
2021/09/07 21:08:35;;;;;;;;;;;19.20;99.90;;;;;;6185805;23;19974;-72
2021/09/07 21:11:24;;;;;;;;;;;19.10;99.90;;;;;;6187184;23;20041;-72
2021/09/07 21:14:13;;;;;;;;;;;19.10;99.90;;;;;;6187549;23;20361;-72
2021/09/07 21:17:04;;;;;;;;;;;19.00;99.90;;;;;;6185326;23;19942;-72
2021/09/07 21:20:18;;;;;;;;;;;19.00;99.90;;;;;;6185636;23;19921;-72
2021/09/07 21:23:07;;;;;;;;;;;18.90;99.90;;;;;;6164463;23;19920;-72
2021/09/07 21:25:55;;;;;;;;;;;18.90;99.90;;;;;;6190596;23;19927;-73
2021/09/07 21:28:45;;;;;;;;;;;18.90;99.90;;;;;;6175095;23;19924;-71
2021/09/07 21:31:33;;;;;;;;;;;18.90;99.90;;;;;;6168971;23;19928;-73
2021/09/07 21:34:24;;;;;;;;;;;18.90;99.90;;;;;;6170120;23;19931;-72
2021/09/07 21:37:13;;;;;;;;;;;18.90;99.90;;;;;;6193183;23;19921;-72
2021/09/07 21:40:03;;;;;;;;;;;18.80;99.90;;;;;;6193772;23;19960;-71
2021/09/07 21:42:52;;;;;;;;;;;18.80;99.90;;;;;;6190073;23;19948;-72
2021/09/07 21:45:41;;;;;;;;;;;18.80;99.90;;;;;;6187095;23;19920;-72
2021/09/07 21:48:29;;;;;;;;;;;18.80;99.90;;;;;;6163790;23;19921;-73
2021/09/07 21:51:20;;;;;;;;;;;18.70;99.90;;;;;;6184417;23;19944;-73
2021/09/07 21:54:08;;;;;;;;;;;18.70;99.90;;;;;;6186501;23;19924;-73
2021/09/07 21:56:56;;;;;;;;;;;18.60;99.90;;;;;;6186478;23;19920;-72
2021/09/07 21:59:45;;;;;;;;;;;18.60;99.90;;;;;;6162508;23;20223;-72
2021/09/07 22:02:33;;;;;;;;;;;18.50;99.90;;;;;;6184200;23;19931;-72
2021/09/07 22:05:22;;;;;;;;;;;18.50;99.90;;;;;;6185560;23;19925;-72
2021/09/07 22:08:12;;;;;;;;;;;18.50;99.90;;;;;;6184663;23;19924;-72
2021/09/07 22:11:01;;;;;;;;;;;18.50;99.90;;;;;;6185064;23;20027;-72
2021/09/07 22:13:53;;;;;;;;;;;18.40;99.90;;;;;;6183266;23;19999;-72
2021/09/07 22:16:45;;;;;;;;;;;18.40;99.90;;;;;;6185069;23;19928;-73
2021/09/07 22:19:33;;;;;;;;;;;18.40;99.90;;;;;;6161585;23;20349;-72
2021/09/07 22:22:26;;;;;;;;;;;18.40;99.90;;;;;;6185123;23;19943;-72
2021/09/07 22:25:18;;;;;;;;;;;18.30;99.90;;;;;;6182039;23;19920;-71
2021/09/07 22:28:07;;;;;;;;;;;18.30;99.90;;;;;;6184638;23;19920;-72
2021/09/07 22:30:57;;;;;;;;;;;18.30;99.90;;;;;;6162354;23;19920;-72
2021/09/07 22:33:46;;;;;;;;;;;18.20;99.90;;;;;;6163085;23;19927;-71
2021/09/07 22:36:36;;;;;;;;;;;18.20;99.90;;;;;;6183439;23;19920;-72
2021/09/07 22:39:50;;;;;;;;;;;18.10;99.90;;;;;;6185874;23;19921;-72
2021/09/07 22:42:42;;;;;;;;;;;18.10;99.90;;;;;;6184633;23;19924;-71
2021/09/07 22:45:31;;;;;;;;;;;18.10;99.90;;;;;;6183754;23;19927;-72
2021/09/07 22:48:21;;;;;;;;;;;18.10;99.90;;;;;;6184394;23;20506;-72
2021/09/07 22:51:12;;;;;;;;;;;18.10;99.90;;;;;;6184325;23;19975;-72
2021/09/07 22:54:02;;;;;;;;;;;18.00;99.90;;;;;;6182057;23;19978;-72
2021/09/07 22:56:52;;;;;;;;;;;18.00;99.90;;;;;;6162779;23;19920;-72
2021/09/07 22:59:46;;;;;;;;;;;17.90;99.90;;;;;;6184611;23;20007;-72
2021/09/07 23:02:34;;;;;;;;;;;17.90;99.90;;;;;;6185510;23;19921;-72
2021/09/07 23:05:23;;;;;;;;;;;17.90;99.90;;;;;;6182678;23;19964;-72
2021/09/07 23:08:12;;;;;;;;;;;17.80;99.90;;;;;;6186600;23;19995;-72
2021/09/07 23:11:00;;;;;;;;;;;17.90;99.90;;;;;;6164072;23;20327;-72
2021/09/07 23:13:50;;;;;;;;;;;17.80;99.90;;;;;;6187661;23;19976;-72
2021/09/07 23:16:40;;;;;;;;;;;17.80;99.90;;;;;;6183804;23;19935;-72
2021/09/07 23:19:30;;;;;;;;;;;17.80;99.90;;;;;;6184639;23;19959;-72
2021/09/07 23:22:19;;;;;;;;;;;17.80;99.90;;;;;;6163888;23;19920;-72
2021/09/07 23:25:08;;;;;;;;;;;17.70;99.90;;;;;;6185483;23;19943;-72
2021/09/07 23:27:58;;;;;;;;;;;17.70;99.90;;;;;;6182836;23;19943;-72
2021/09/07 23:30:47;;;;;;;;;;;17.70;99.90;;;;;;6185728;23;19921;-72
2021/09/07 23:33:38;;;;;;;;;;;17.70;99.90;;;;;;6184464;23;19920;-73
2021/09/07 23:36:27;;;;;;;;;;;17.70;99.90;;;;;;6185017;23;19920;-71
2021/09/07 23:39:16;;;;;;;;;;;17.70;99.90;;;;;;6184890;23;19924;-72
2021/09/07 23:42:06;;;;;;;;;;;17.60;99.90;;;;;;6185960;23;19955;-72
2021/09/07 23:44:55;;;;;;;;;;;17.60;99.90;;;;;;6164080;23;19920;-72
2021/09/07 23:47:43;;;;;;;;;;;17.60;99.90;;;;;;6163041;23;19927;-72
2021/09/07 23:50:33;;;;;;;;;;;17.60;99.90;;;;;;6193139;23;19921;-71
2021/09/07 23:53:21;;;;;;;;;;;17.60;99.90;;;;;;6197158;23;19944;-71
2021/09/07 23:56:10;;;;;;;;;;;17.60;99.90;;;;;;6163343;23;19924;-71
2021/09/07 23:59:00;;;;;;;;;;;17.60;99.90;;;;;;6186614;23;19987;-72
